ADDS METAR Data INFO
IDs: Format: Raw Decoded Include TAF

Data at: 1321 UTC 11 Dec 2017

KCXE 111315Z AUTO 23003KT 10SM CLR M01/M03 A3012 RMK AO1 T10121033
KCXE 111255Z AUTO 00000KT 10SM CLR M02/M03 A3012 RMK AO1 T10181028
KCXE 111235Z AUTO 00000KT 10SM CLR M03/M03 A3011 RMK AO1 T10351035
KCXE 111215Z AUTO 00000KT 10SM CLR M03/M03 A3010 RMK AO1 T10311031
KCXE 111155Z AUTO 00000KT 10SM CLR M03/M03 A3010 RMK AO1 T10301030 11006 21031
KCXE 111135Z AUTO 00000KT 10SM CLR M03/M03 A3009 RMK AO1 T10261027
KCXE 111115Z AUTO 00000KT 10SM CLR M03/M03 A3009 RMK AO1 T10261026
KCXE 111055Z AUTO 00000KT 10SM CLR M02/M02 A3009 RMK AO1 T10211022
KCXE 111035Z AUTO 00000KT 10SM CLR M03/M03 A3008 RMK AO1 T10271028
KCXE 111015Z AUTO 00000KT 10SM CLR M03/M03 A3008 RMK AO1 T10261026
KCXE 110955Z AUTO 00000KT 10SM CLR M02/M02 A3008 RMK AO1 T10221024
KCXE 110935Z AUTO 00000KT 10SM CLR M02/M03 A3008 RMK AO1 T10201031
KCXE 110915Z AUTO 00000KT 10SM CLR M01/M03 A3008 RMK AO1 T10151028
KCXE 110855Z AUTO 00000KT 10SM CLR M01/M03 A3007 RMK AO1 T10101033
KCXE 110835Z AUTO 00000KT 10SM CLR M01/M03 A3008 RMK AO1 T10101031
KCXE 110815Z AUTO 00000KT 10SM CLR M01/M03 A3008 RMK AO1 T10061035
KCXE 110755Z AUTO 00000KT 10SM CLR M01/M03 A3008 RMK AO1 T10121031
KCXE 110735Z AUTO 00000KT 10SM CLR M02/M02 A3008 RMK AO1 T10231024
KCXE 110715Z AUTO 00000KT 10SM CLR M02/M03 A3009 RMK AO1 T10181030
KCXE 110655Z AUTO 00000KT 10SM CLR M02/M03 A3009 RMK AO1 T10191031
KCXE 110635Z AUTO 00000KT 10SM CLR M02/M03 A3009 RMK AO1 T10161033
KCXE 110615Z AUTO 00000KT 10SM CLR M02/M03 A3009 RMK AO1 T10161032
KCXE 110555Z AUTO 00000KT 10SM CLR M02/M03 A3009 RMK AO1 T10161030 11005 21030
KCXE 110535Z AUTO 00000KT 10SM CLR M02/M02 A3011 RMK AO1 T10211021
KCXE 110515Z AUTO 00000KT 10SM CLR M03/M03 A3011 RMK AO1 T10261026
KCXE 110455Z AUTO 00000KT 10SM CLR M02/M02 A3012 RMK AO1 T10251025
KCXE 110435Z AUTO 00000KT 10SM CLR M02/M02 A3011 RMK AO1 T10251025
KCXE 110415Z AUTO 00000KT 10SM CLR M03/M03 A3011 RMK AO1 T10271027
KCXE 110355Z AUTO 00000KT 10SM CLR M02/M02 A3011 RMK AO1 T10251025 400321040
KCXE 110335Z AUTO 00000KT 10SM CLR M03/M03 A3011 RMK AO1 T10261026
KCXE 110315Z AUTO 00000KT 10SM CLR M02/M02 A3012 RMK AO1 T10201020
KCXE 110255Z AUTO 00000KT 10SM CLR M01/M02 A3012 RMK AO1 T10151021
KCXE 110235Z AUTO 00000KT 10SM CLR M01/M02 A3012 RMK AO1 T10131019
KCXE 110215Z AUTO 00000KT 10SM SCT100 M01/M01 A3012 RMK AO1 T10121015
KCXE 110155Z AUTO 00000KT 10SM SCT100 M01/M02 A3012 RMK AO1 T10061022
KCXE 110135Z AUTO 00000KT 10SM SCT100 M01/M02 A3012 RMK AO1 T10091017
KCXE 110115Z AUTO 00000KT 10SM CLR M01/M01 A3012 RMK AO1 T10121014
KCXE 110055Z AUTO 00000KT 10SM CLR M01/M01 A3011 RMK AO1 T10111011
KCXE 110035Z AUTO 00000KT 10SM CLR M01/M01 A3011 RMK AO1 T10111011
KCXE 110015Z AUTO 00000KT 10SM CLR M01/M01 A3011 RMK AO1 T10101011
KCXE 102355Z AUTO 00000KT 10SM CLR M01/M01 A3011 RMK AO1 T10101010 10032 21010
KCXE 102335Z AUTO 00000KT 10SM CLR M01/M02 A3011 RMK AO1 T10061016
KCXE 102315Z AUTO 00000KT 10SM CLR 00/00 A3011 RMK AO1 T10051005
KCXE 102255Z AUTO 00000KT 10SM CLR 00/M02 A3011 RMK AO1 T10021021
KCXE 102235Z AUTO 00000KT 10SM CLR 00/M03 A3011 RMK AO1 T00011027
KCXE 102215Z AUTO 00000KT 10SM CLR 01/M03 A3011 RMK AO1 T00061028
KCXE 102155Z AUTO 00000KT 10SM CLR 02/M04 A3011 RMK AO1 T00201039
KCXE 102135Z AUTO 00000KT 10SM CLR 02/M03 A3011 RMK AO1 T00211035
KCXE 102115Z AUTO 00000KT 10SM CLR 03/M04 A3011 RMK AO1 T00251038
KCXE 102055Z AUTO 23003KT 10SM CLR 03/M04 A3010 RMK AO1 T00301043
KCXE 102035Z AUTO 24004KT 10SM CLR 03/M04 A3010 RMK AO1 T00311043
KCXE 102015Z AUTO 26005KT 10SM CLR 03/M04 A3010 RMK AO1 T00301041
KCXE 101955Z AUTO 27006KT 10SM CLR 03/M04 A3010 RMK AO1 T00301037
KCXE 101935Z AUTO 27003KT 10SM SCT033 03/M03 A3010 RMK AO1 T00281032
KCXE 101915Z AUTO 27006KT 10SM SCT033 03/M03 A3011 RMK AO1 T00301029
KCXE 101855Z AUTO 26006KT 10SM SCT031 03/M03 A3011 RMK AO1 T00281030
KCXE 101835Z AUTO 26007KT 210V280 10SM SCT029 02/M02 A3012 RMK AO1 T00221022
KCXE 101815Z AUTO 27006KT 220V300 10SM BKN031 02/M02 A3012 RMK AO1 T00211024
KCXE 101755Z AUTO 27003G14KT 10SM BKN031 02/M03 A3013 RMK AO1 T00211027 10026 21040
KCXE 101735Z AUTO 27006KT 210V300 10SM BKN031 03/M02 A3013 RMK AO1 T00261020
KCXE 101715Z AUTO 26005KT 10SM CLR 02/M02 A3014 RMK AO1 T00221019
KCXE 101655Z AUTO 26004KT 10SM CLR 02/M01 A3014 RMK AO1 T00201015
KCXE 101635Z AUTO 26003KT 10SM CLR 02/M02 A3016 RMK AO1 T00181017
KCXE 101615Z AUTO 25005KT 10SM CLR 02/M01 A3016 RMK AO1 T00161011
KCXE 101555Z AUTO 28004KT 10SM CLR 01/00 A3016 RMK AO1 T00121005
KCXE 101535Z AUTO 24005KT 10SM CLR 01/M01 A3016 RMK AO1 T00071010
KCXE 101515Z AUTO 25005KT 10SM CLR 00/M01 A3016 RMK AO1 T00031015
KCXE 101455Z AUTO 24005KT 10SM CLR 00/M01 A3015 RMK AO1 T00001010
KCXE 101435Z AUTO 25004KT 10SM CLR 00/M01 A3015 RMK AO1 T10041013
KCXE 101415Z AUTO 24004KT 10SM CLR M01/M02 A3014 RMK AO1 T10081021
KCXE 101355Z AUTO 00000KT 10SM CLR M01/M02 A3013 RMK AO1 T10151020
KCXE 101335Z AUTO 00000KT 10SM CLR M02/M02 A3012 RMK AO1 T10201022
KCXE 101315Z AUTO 00000KT 10SM CLR M03/M03 A3011 RMK AO1 T10291029
KCXE 101255Z AUTO 00000KT 10SM CLR M03/M03 A3010 RMK AO1 T10301030
KCXE 101235Z AUTO 00000KT 10SM CLR M04/M04 A3010 RMK AO1 T10361036
KCXE 101215Z AUTO 00000KT 10SM CLR M04/M04 A3009 RMK AO1 T10361036
KCXE 101155Z AUTO 00000KT 10SM CLR M03/M03 A3008 RMK AO1 70001 T10321032 11004 21039
KCXE 101135Z AUTO 25003KT 10SM CLR M03/M03 A3007 RMK AO1 T10311031
KCXE 101115Z AUTO 25004KT 10SM SCT055 M03/M03 A3006 RMK AO1 T10351035
KCXE 101055Z AUTO 00000KT 10SM SCT055 M03/M03 A3005 RMK AO1 T10271027
KCXE 101035Z AUTO 00000KT 10SM CLR M03/M03 A3004 RMK AO1 T10291029
KCXE 101015Z AUTO 00000KT 10SM CLR M02/M02 A3002 RMK AO1 T10251025
KCXE 100955Z AUTO 27003KT 10SM CLR M02/M02 A3001 RMK AO1 T10231023
KCXE 100935Z AUTO 27004KT 10SM CLR M02/M02 A2999 RMK AO1 T10201020
KCXE 100915Z AUTO 27004KT 10SM CLR M02/M02 A2999 RMK AO1 T10171021
KCXE 100855Z AUTO 27004KT 10SM CLR M01/M01 A2999 RMK AO1 T10151015
KCXE 100835Z AUTO 28004KT 10SM SCT060 M01/M01 A2998 RMK AO1 T10151015
KCXE 100815Z AUTO 28003KT 10SM SCT060 M01/M01 A2997 RMK AO1 T10121012
KCXE 100755Z AUTO 28004KT 10SM CLR M01/M01 A2996 RMK AO1 T10101010
KCXE 100735Z AUTO 28005KT 10SM SCT060 SCT090 M01/M01 A2995 RMK AO1 T10061006
KCXE 100715Z AUTO 27006KT 10SM CLR M01/M01 A2994 RMK AO1 T10071007
KCXE 100655Z AUTO 27003KT 10SM CLR M01/M01 A2994 RMK AO1 T10081008
KCXE 100635Z AUTO 27004KT 7SM CLR M01/M01 A2993 RMK AO1 T10071007
KCXE 100615Z AUTO 27005KT 7SM CLR 00/00 A2992 RMK AO1 T10051005
KCXE 100555Z AUTO 27003KT 7SM SCT110 00/00 A2991 RMK AO1 T10041004 10000 21005
KCXE 100535Z AUTO 26003KT 7SM SCT004 SCT090 BKN110 00/00 A2991 RMK AO1 T10011001
KCXE 100515Z AUTO 00000KT 7SM BKN006 OVC009 00/00 A2991 RMK AO1 T00000000
KCXE 100455Z AUTO 25003KT 5SM OVC006 00/00 A2990 RMK AO1 T00000000
KCXE 100435Z AUTO 00000KT 5SM BKN008 BKN075 OVC090 00/00 A2990 RMK AO1 T10011001
KCXE 100415Z AUTO 00000KT 5SM SCT008 BKN050 OVC100 00/00 A2990 RMK AO1 T10021002
KCXE 100355Z AUTO 00000KT 5SM SCT003 OVC012 00/00 A2989 RMK AO1 T10011001 400011005
KCXE 100335Z AUTO 00000KT 4SM SCT003 BKN015 OVC120 00/00 A2989 RMK AO1 T10021002
KCXE 100315Z AUTO 00000KT 5SM BKN003 OVC120 00/00 A2989 RMK AO1 T00000000
KCXE 100255Z AUTO 00000KT 7SM OVC005 00/00 A2989 RMK AO1 T00000000
KCXE 100235Z AUTO 00000KT 7SM OVC005 00/00 A2988 RMK AO1 T00000000
KCXE 100215Z AUTO 26004KT 7SM OVC003 00/00 A2988 RMK AO1 T00000000
KCXE 100155Z AUTO 25004KT 5SM OVC003 00/00 A2988 RMK AO1 T10011001
KCXE 100135Z AUTO 26004KT 10SM OVC003 00/00 A2988 RMK AO1 T10021002